Time;durP1;ratioP1;P1;durP2;ratioP2;P2;SDS_P1;SDS_P2;PMS_P1;PMS_P2;Temp;Humidity;BMP_temperature;BMP_pressure;BME280_temperature;BME280_humidity;BME280_pressure;Samples;Min_cycle;Max_cycle;Signal;HPM_P1;HPM_P2
2023/07/21 00:01:08;;;;;;;1.10;1.00;;;19.10;62.70;;;;;;5069082;28;20025;-69
2023/07/21 00:03:35;;;;;;;1.10;1.00;;;19.10;62.60;;;;;;5071197;28;20495;-69
2023/07/21 00:06:02;;;;;;;1.13;0.90;;;19.10;62.60;;;;;;5071371;28;20032;-69
2023/07/21 00:08:29;;;;;;;2.80;1.15;;;19.20;62.70;;;;;;5070920;28;20095;-69
2023/07/21 00:10:57;;;;;;;1.05;1.00;;;19.20;62.60;;;;;;5071284;28;20016;-69
2023/07/21 00:13:27;;;;;;;2.83;1.10;;;19.20;62.60;;;;;;5068010;28;20024;-69
2023/07/21 00:15:54;;;;;;;1.52;1.00;;;19.10;62.60;;;;;;5056873;28;20016;-69
2023/07/21 00:18:20;;;;;;;2.33;1.10;;;19.10;62.60;;;;;;5062373;28;20033;-69
2023/07/21 00:20:46;;;;;;;1.20;1.10;;;19.10;62.60;;;;;;5070893;28;20020;-69
2023/07/21 00:23:12;;;;;;;1.35;1.00;;;19.00;62.60;;;;;;5070413;28;20024;-69
2023/07/21 00:25:39;;;;;;;1.30;1.20;;;19.00;62.60;;;;;;5070818;28;20031;-69
2023/07/21 00:28:05;;;;;;;1.25;1.00;;;19.00;62.60;;;;;;5070505;28;20071;-69
2023/07/21 00:30:30;;;;;;;1.77;1.00;;;19.00;62.60;;;;;;5070378;28;20449;-69
2023/07/21 00:32:57;;;;;;;1.15;1.00;;;18.90;62.60;;;;;;5059986;28;20017;-69
2023/07/21 00:35:23;;;;;;;1.20;1.10;;;18.90;62.70;;;;;;5053336;28;20498;-69
2023/07/21 00:37:48;;;;;;;1.02;0.98;;;18.90;62.90;;;;;;5070293;28;20111;-69
2023/07/21 00:40:18;;;;;;;1.17;1.08;;;18.80;63.00;;;;;;5070344;28;20556;-69
2023/07/21 00:42:45;;;;;;;1.33;1.00;;;18.80;63.10;;;;;;5070435;28;20024;-69
2023/07/21 00:45:14;;;;;;;1.20;1.10;;;18.80;63.20;;;;;;5070141;28;20017;-69
2023/07/21 00:47:40;;;;;;;1.08;1.05;;;18.80;63.30;;;;;;5070208;28;20020;-69
2023/07/21 00:50:06;;;;;;;1.27;0.90;;;18.80;63.40;;;;;;5065511;28;20029;-69
2023/07/21 00:52:32;;;;;;;1.17;1.08;;;18.70;63.30;;;;;;5053908;28;20020;-69
2023/07/21 00:54:57;;;;;;;1.48;1.00;;;18.70;63.40;;;;;;5065873;28;20021;-69
2023/07/21 00:57:24;;;;;;;1.83;1.17;;;18.60;63.50;;;;;;5069962;28;20103;-69
2023/07/21 00:59:50;;;;;;;1.45;1.10;;;18.60;63.60;;;;;;5070016;28;20044;-69
2023/07/21 01:02:17;;;;;;;1.17;1.08;;;18.60;63.80;;;;;;5069952;28;20032;-69
2023/07/21 01:04:44;;;;;;;2.40;1.25;;;18.60;63.80;;;;;;5069807;28;20020;-69
2023/07/21 01:07:10;;;;;;;1.20;1.10;;;18.50;63.90;;;;;;5069700;28;20159;-68
2023/07/21 01:09:37;;;;;;;1.98;1.20;;;18.50;64.00;;;;;;5060049;28;20017;-69
2023/07/21 01:12:06;;;;;;;1.30;1.20;;;18.50;64.00;;;;;;5049838;28;20364;-69
2023/07/21 01:14:33;;;;;;;1.90;1.10;;;18.50;64.10;;;;;;5049511;28;20060;-69
2023/07/21 01:17:01;;;;;;;2.08;1.20;;;18.50;64.80;;;;;;5049774;28;20029;-68
2023/07/21 01:19:29;;;;;;;1.90;1.20;;;18.50;64.20;;;;;;5049680;28;20059;-69
2023/07/21 01:22:22;;;;;;;1.80;1.40;;;18.50;64.20;;;;;;5049997;28;20017;-69
2023/07/21 01:24:51;;;;;;;1.20;1.10;;;18.50;64.30;;;;;;5049662;28;20117;-68
2023/07/21 01:27:23;;;;;;;1.20;1.10;;;18.40;64.30;;;;;;5049241;28;20416;-69
2023/07/21 01:29:50;;;;;;;;;;;18.40;64.40;;;;;;5050000;28;20051;-69
2023/07/21 01:32:18;;;;;;;1.48;1.20;;;18.40;64.30;;;;;;5033269;28;19951;-69
2023/07/21 01:34:45;;;;;;;1.40;1.30;;;18.40;64.40;;;;;;5049364;28;20066;-69
2023/07/21 01:37:12;;;;;;;2.05;1.20;;;18.40;64.50;;;;;;5049667;28;20032;-69
2023/07/21 01:39:39;;;;;;;1.35;1.20;;;18.40;64.40;;;;;;5049730;28;20027;-69
2023/07/21 01:42:05;;;;;;;1.45;1.17;;;18.40;64.40;;;;;;5049542;28;20051;-69
2023/07/21 01:44:31;;;;;;;1.13;1.02;;;18.40;64.40;;;;;;5049617;28;20051;-69
2023/07/21 01:46:57;;;;;;;1.42;1.10;;;18.40;64.40;;;;;;5060365;28;20040;-68
2023/07/21 01:49:22;;;;;;;2.95;1.20;;;18.40;64.50;;;;;;5065381;28;20021;-69
2023/07/21 01:51:50;;;;;;;1.45;1.08;;;18.40;64.60;;;;;;5089106;28;20070;-69
2023/07/21 01:54:42;;;;;;;1.27;1.17;;;18.30;64.60;;;;;;5073575;28;20024;-68
2023/07/21 01:57:13;;;;;;;1.50;1.23;;;18.30;64.70;;;;;;5042254;28;20076;-69
2023/07/21 01:59:43;;;;;;;1.23;1.13;;;18.30;64.90;;;;;;5073718;28;20016;-69
2023/07/21 02:02:09;;;;;;;1.52;1.20;;;18.20;65.00;;;;;;5073387;28;20027;-69
2023/07/21 02:04:35;;;;;;;2.15;1.10;;;18.20;65.20;;;;;;5062953;28;20087;-69
2023/07/21 02:07:00;;;;;;;1.35;1.20;;;18.10;65.50;;;;;;5064384;28;20035;-69
2023/07/21 02:09:26;;;;;;;1.70;1.10;;;18.10;65.70;;;;;;5073280;28;20060;-68
2023/07/21 02:11:52;;;;;;;1.33;1.23;;;18.10;65.90;;;;;;5073715;28;20031;-69
2023/07/21 02:14:18;;;;;;;1.20;1.10;;;18.10;65.90;;;;;;5055578;28;20065;-68
2023/07/21 02:16:43;;;;;;;1.42;1.20;;;18.00;66.10;;;;;;5073252;28;20035;-69
2023/07/21 02:19:09;;;;;;;1.75;1.30;;;18.00;66.30;;;;;;5073131;28;20021;-69
2023/07/21 02:21:35;;;;;;;2.08;1.23;;;18.00;66.40;;;;;;5064148;28;20017;-69
2023/07/21 02:24:00;;;;;;;1.33;1.13;;;18.00;66.50;;;;;;5051793;28;20029;-68
2023/07/21 02:26:26;;;;;;;1.20;1.10;;;17.90;66.60;;;;;;5073018;28;20035;-68
2023/07/21 02:28:52;;;;;;;1.13;1.02;;;17.90;66.70;;;;;;5072739;28;20021;-69
2023/07/21 02:31:18;;;;;;;1.90;1.10;;;17.90;66.80;;;;;;5073095;28;20039;-69
2023/07/21 02:33:43;;;;;;;1.27;1.17;;;17.90;67.00;;;;;;5072844;28;20442;-69
2023/07/21 02:36:09;;;;;;;1.30;1.20;;;17.90;67.00;;;;;;5055379;28;20161;-68
2023/07/21 02:38:35;;;;;;;1.45;1.10;;;17.90;67.20;;;;;;5072724;28;20020;-68
2023/07/21 02:41:04;;;;;;;1.15;1.10;;;17.80;67.20;;;;;;5072606;28;20043;-68
2023/07/21 02:43:30;;;;;;;1.40;1.30;;;17.80;67.30;;;;;;5072982;28;20103;-69
2023/07/21 02:45:56;;;;;;;1.88;1.20;;;17.80;67.20;;;;;;5072226;28;20028;-68
2023/07/21 02:48:22;;;;;;;1.75;1.20;;;17.80;67.20;;;;;;5072624;28;20023;-69
2023/07/21 02:50:49;;;;;;;1.25;1.15;;;17.80;67.30;;;;;;5072231;28;20052;-69
2023/07/21 02:53:16;;;;;;;1.52;1.10;;;17.70;67.40;;;;;;5072770;28;20360;-69
2023/07/21 02:55:42;;;;;;;1.35;1.23;;;17.70;67.50;;;;;;5051312;28;20027;-69
2023/07/21 02:58:10;;;;;;;1.52;1.15;;;17.70;67.60;;;;;;5031382;28;20032;-69
2023/07/21 03:00:36;;;;;;;1.20;1.10;;;17.70;67.70;;;;;;5032120;28;20439;-69
2023/07/21 03:03:03;;;;;;;1.67;1.05;;;17.70;67.80;;;;;;5032238;28;20030;-68
2023/07/21 03:05:29;;;;;;;2.05;1.15;;;17.70;67.80;;;;;;5032044;28;20025;-68
2023/07/21 03:07:56;;;;;;;1.35;1.20;;;17.70;67.70;;;;;;5031988;28;20025;-69
2023/07/21 03:10:22;;;;;;;1.17;1.00;;;17.60;67.70;;;;;;5047568;28;20025;-69
2023/07/21 03:12:47;;;;;;;1.70;1.30;;;17.60;67.80;;;;;;5032414;28;20365;-68
2023/07/21 03:15:15;;;;;;;2.15;1.25;;;17.60;67.90;;;;;;5031913;28;20048;-68
2023/07/21 03:17:40;;;;;;;1.55;1.10;;;17.60;67.90;;;;;;5031948;28;20018;-68
2023/07/21 03:20:15;;;;;;;2.13;1.52;;;17.50;67.80;;;;;;5032571;28;20030;-69
2023/07/21 03:22:42;;;;;;;3.42;1.88;;;17.50;67.90;;;;;;5032021;28;20117;-69
2023/07/21 03:25:09;;;;;;;1.98;1.60;;;17.50;67.90;;;;;;5031790;28;20020;-69
2023/07/21 03:27:35;;;;;;;2.72;1.58;;;17.50;68.00;;;;;;5032264;28;20013;-69
2023/07/21 03:30:01;;;;;;;2.25;1.33;;;17.40;68.00;;;;;;5032260;28;20029;-69
2023/07/21 03:32:27;;;;;;;1.42;1.30;;;17.40;68.20;;;;;;5031957;28;20097;-69
2023/07/21 03:34:54;;;;;;;2.28;1.40;;;17.40;68.30;;;;;;5031447;28;20021;-69
2023/07/21 03:37:23;;;;;;;1.60;1.40;;;17.30;68.30;;;;;;5031931;28;20052;-69
2023/07/21 03:39:49;;;;;;;1.30;1.20;;;17.30;68.40;;;;;;5053505;28;20108;-69
2023/07/21 03:42:14;;;;;;;1.40;1.27;;;17.30;68.50;;;;;;5071658;28;20570;-69
2023/07/21 03:44:40;;;;;;;1.75;1.30;;;17.30;68.60;;;;;;5071157;28;20082;-69
2023/07/21 03:47:05;;;;;;;1.20;1.10;;;17.30;68.80;;;;;;5071434;28;20028;-69
2023/07/21 03:49:32;;;;;;;1.52;1.17;;;17.20;68.70;;;;;;5071419;28;20031;-69
2023/07/21 03:51:57;;;;;;;2.70;1.20;;;17.20;68.80;;;;;;5071667;28;20119;-68
2023/07/21 03:54:23;;;;;;;1.90;1.30;;;17.20;69.10;;;;;;5071466;28;20531;-69
2023/07/21 03:56:48;;;;;;;1.25;1.10;;;17.10;69.30;;;;;;5071171;28;20133;-69
2023/07/21 03:59:14;;;;;;;1.45;0.93;;;17.00;69.80;;;;;;5071706;28;20032;-69
2023/07/21 04:01:39;;;;;;;1.48;1.17;;;17.00;70.10;;;;;;5070895;28;20039;-70
2023/07/21 04:04:05;;;;;;;1.13;1.00;;;17.00;70.20;;;;;;5071073;28;20425;-69
2023/07/21 04:06:30;;;;;;;1.05;1.02;;;17.00;70.00;;;;;;5070946;28;20063;-69
2023/07/21 04:08:56;;;;;;;1.40;1.10;;;17.00;69.90;;;;;;5070132;28;20021;-69
2023/07/21 04:11:22;;;;;;;1.58;1.20;;;17.10;69.90;;;;;;5070884;28;20387;-70
2023/07/21 04:13:47;;;;;;;1.27;1.13;;;17.00;69.90;;;;;;5070918;28;20024;-69
2023/07/21 04:16:13;;;;;;;1.10;0.95;;;17.00;70.10;;;;;;5070861;28;20127;-69
2023/07/21 04:18:39;;;;;;;0.93;0.90;;;17.00;70.20;;;;;;5071262;28;20378;-69
2023/07/21 04:21:05;;;;;;;1.30;1.00;;;17.10;70.30;;;;;;5070989;28;20423;-70
2023/07/21 04:23:30;;;;;;;1.23;1.13;;;17.10;70.20;;;;;;5070785;28;20093;-69
2023/07/21 04:25:56;;;;;;;1.73;1.08;;;17.20;70.20;;;;;;5071134;28;20086;-69
2023/07/21 04:28:22;;;;;;;1.15;0.90;;;17.20;70.10;;;;;;5070784;28;20016;-69
2023/07/21 04:30:53;;;;;;;1.75;1.10;;;17.20;70.10;;;;;;5070686;28;20465;-69
2023/07/21 04:33:19;;;;;;;1.92;1.05;;;17.20;70.10;;;;;;5071232;28;20021;-69
2023/07/21 04:35:48;;;;;;;1.10;1.00;;;17.20;70.20;;;;;;5071108;28;20024;-69
2023/07/21 04:38:14;;;;;;;1.10;1.00;;;17.30;70.20;;;;;;5070881;28;20043;-70
2023/07/21 04:40:44;;;;;;;1.92;1.10;;;17.20;70.10;;;;;;5070808;28;20119;-70
2023/07/21 04:43:11;;;;;;;1.10;1.00;;;17.30;70.40;;;;;;5070757;28;20447;-69
2023/07/21 04:45:40;;;;;;;1.30;1.20;;;17.20;70.30;;;;;;5070090;28;20021;-69
2023/07/21 04:48:06;;;;;;;1.85;1.35;;;17.20;70.50;;;;;;5070275;28;20426;-69
2023/07/21 04:50:32;;;;;;;1.65;1.48;;;17.20;70.60;;;;;;5070439;28;20065;-69
2023/07/21 04:52:57;;;;;;;2.38;1.30;;;17.30;70.70;;;;;;5052415;28;20070;-69
2023/07/21 04:55:23;;;;;;;1.60;1.48;;;17.20;70.80;;;;;;5070051;28;20036;-69
2023/07/21 04:57:48;;;;;;;2.67;1.35;;;17.20;71.00;;;;;;5070602;28;20244;-69
2023/07/21 05:00:15;;;;;;;2.05;1.20;;;17.20;71.00;;;;;;5070473;28;20035;-69
2023/07/21 05:02:40;;;;;;;1.73;1.40;;;17.30;71.00;;;;;;5070080;28;20024;-69
2023/07/21 05:05:07;;;;;;;1.92;1.45;;;17.30;70.90;;;;;;5069884;28;20052;-69
2023/07/21 05:07:33;;;;;;;1.58;1.45;;;17.30;70.80;;;;;;5070028;28;20016;-69
2023/07/21 05:09:58;;;;;;;1.70;1.60;;;17.40;71.00;;;;;;5070071;28;20027;-69
2023/07/21 05:12:25;;;;;;;1.63;1.52;;;17.40;71.00;;;;;;5069936;28;20501;-70
2023/07/21 05:14:51;;;;;;;2.88;1.50;;;17.40;71.00;;;;;;5069743;28;20024;-69
2023/07/21 05:17:17;;;;;;;2.30;1.58;;;17.40;71.10;;;;;;5069821;28;20034;-69
2023/07/21 05:19:44;;;;;;;2.25;1.55;;;17.50;71.10;;;;;;5069697;28;20542;-70
2023/07/21 05:22:10;;;;;;;2.55;1.50;;;18.00;70.40;;;;;;5051630;28;20024;-70
2023/07/21 05:24:36;;;;;;;1.92;1.73;;;18.10;69.50;;;;;;5069725;28;20028;-69
2023/07/21 05:27:01;;;;;;;2.33;1.80;;;18.20;69.20;;;;;;5069682;28;20033;-70
2023/07/21 05:29:27;;;;;;;2.00;1.60;;;18.30;68.80;;;;;;5069649;28;20036;-69
2023/07/21 05:31:53;;;;;;;2.03;1.60;;;18.60;68.30;;;;;;5069959;28;20033;-69
2023/07/21 05:34:21;;;;;;;2.00;1.75;;;18.90;67.70;;;;;;5069924;28;20020;-69
2023/07/21 05:36:46;;;;;;;1.85;1.67;;;19.60;66.70;;;;;;5069665;28;20020;-70
2023/07/21 05:39:12;;;;;;;1.65;1.50;;;20.40;64.70;;;;;;5029903;28;20026;-70
2023/07/21 05:41:38;;;;;;;1.48;1.38;;;21.10;63.00;;;;;;5030306;28;20072;-69
2023/07/21 05:44:04;;;;;;;3.40;1.83;;;21.70;61.20;;;;;;5029764;28;20029;-70
2023/07/21 05:46:30;;;;;;;1.75;1.65;;;22.30;59.80;;;;;;5029881;28;20488;-70
2023/07/21 05:48:55;;;;;;;1.63;1.48;;;22.70;58.90;;;;;;5029692;28;20076;-70
2023/07/21 05:51:22;;;;;;;1.90;1.60;;;23.00;58.10;;;;;;5029910;28;20461;-70
2023/07/21 05:53:48;;;;;;;3.40;1.60;;;23.50;57.20;;;;;;5029945;28;20048;-70
2023/07/21 05:56:13;;;;;;;2.40;1.50;;;23.90;56.20;;;;;;5029774;28;20065;-70
2023/07/21 05:58:41;;;;;;;1.80;1.52;;;24.20;55.60;;;;;;5029784;28;20032;-70
2023/07/21 06:01:10;;;;;;;2.45;1.55;;;24.50;54.90;;;;;;5029505;28;20064;-70
2023/07/21 06:03:37;;;;;;;2.03;1.77;;;24.70;54.50;;;;;;5011901;28;20121;-70
2023/07/21 06:06:03;;;;;;;1.92;1.70;;;24.70;54.20;;;;;;5029917;28;20096;-70
2023/07/21 06:08:28;;;;;;;1.90;1.70;;;24.70;53.90;;;;;;5029670;28;20456;-70
2023/07/21 06:10:59;;;;;;;2.38;1.63;;;24.60;54.00;;;;;;5029879;28;20025;-70
2023/07/21 06:13:25;;;;;;;2.15;1.80;;;24.50;54.00;;;;;;5029720;28;20268;-70
2023/07/21 06:15:50;;;;;;;2.08;1.88;;;24.40;53.90;;;;;;5029504;28;20485;-69
2023/07/21 06:18:16;;;;;;;2.58;2.00;;;24.50;53.90;;;;;;5029780;28;20079;-69
2023/07/21 06:20:41;;;;;;;2.40;1.83;;;24.50;53.90;;;;;;5029304;28;20040;-70
2023/07/21 06:23:07;;;;;;;2.13;1.90;;;24.50;53.90;;;;;;5029682;28;20017;-70
2023/07/21 06:25:33;;;;;;;2.85;1.75;;;24.50;54.00;;;;;;5029472;28;20036;-70
2023/07/21 06:27:58;;;;;;;2.63;2.30;;;24.40;54.20;;;;;;5029430;28;20569;-70
2023/07/21 06:30:24;;;;;;;2.30;2.10;;;24.60;54.00;;;;;;5029225;28;20033;-70
2023/07/21 06:32:49;;;;;;;2.17;1.98;;;24.30;54.40;;;;;;5032635;28;20163;-70
2023/07/21 06:35:15;;;;;;;2.97;2.05;;;24.10;54.90;;;;;;5033036;28;20079;-70
2023/07/21 06:37:41;;;;;;;2.08;1.88;;;24.00;55.40;;;;;;5037438;28;20392;-70
2023/07/21 06:40:09;;;;;;;1.88;1.65;;;23.90;55.80;;;;;;5061828;28;20032;-70
2023/07/21 06:42:39;;;;;;;2.20;2.00;;;23.80;56.10;;;;;;5072281;28;20118;-70
2023/07/21 06:45:05;;;;;;;1.80;1.70;;;23.50;56.50;;;;;;5072858;28;20074;-70
2023/07/21 06:47:30;;;;;;;2.28;1.85;;;23.50;56.70;;;;;;5072731;28;20123;-69
2023/07/21 06:49:56;;;;;;;2.00;1.80;;;23.30;56.80;;;;;;5072456;28;20659;-70
2023/07/21 06:52:21;;;;;;;1.60;1.50;;;23.30;56.80;;;;;;5054765;28;20406;-70
2023/07/21 06:54:47;;;;;;;1.35;1.25;;;23.20;56.80;;;;;;5072167;28;20017;-70
2023/07/21 06:57:14;;;;;;;2.15;1.50;;;23.20;56.90;;;;;;5055124;28;20404;-70
2023/07/21 06:59:39;;;;;;;2.53;1.48;;;23.30;56.70;;;;;;5061185;28;20234;-70
2023/07/21 07:02:06;;;;;;;2.53;1.38;;;23.30;56.20;;;;;;5050319;28;20027;-70
2023/07/21 07:04:33;;;;;;;1.23;1.10;;;23.30;56.10;;;;;;5047523;28;20033;-70
2023/07/21 07:06:58;;;;;;;2.45;1.20;;;23.40;55.80;;;;;;5045844;28;20045;-69
2023/07/21 07:09:25;;;;;;;1.48;1.30;;;23.50;55.30;;;;;;5043989;28;20488;-70
2023/07/21 07:11:52;;;;;;;1.60;1.20;;;23.60;55.00;;;;;;5050603;28;20101;-70
2023/07/21 07:14:18;;;;;;;0.95;0.93;;;23.60;54.60;;;;;;5046391;28;20021;-70
2023/07/21 07:16:43;;;;;;;1.45;1.20;;;23.70;54.50;;;;;;5043723;28;20083;-70
2023/07/21 07:19:09;;;;;;;1.33;1.00;;;23.80;54.20;;;;;;5053357;28;20108;-70
2023/07/21 07:21:35;;;;;;;2.40;1.10;;;23.80;54.00;;;;;;5046969;28;20475;-69
2023/07/21 07:24:01;;;;;;;1.35;1.20;;;23.60;53.80;;;;;;5051064;28;20029;-70
2023/07/21 07:26:27;;;;;;;1.63;1.10;;;23.60;53.70;;;;;;5050926;28;20029;-70
2023/07/21 07:28:53;;;;;;;1.27;1.05;;;23.50;53.50;;;;;;5052099;28;20048;-70
2023/07/21 07:31:19;;;;;;;1.13;1.00;;;23.50;53.40;;;;;;5054049;28;20052;-70
2023/07/21 07:33:44;;;;;;;2.05;1.30;;;23.50;53.40;;;;;;5052878;28;20019;-69
2023/07/21 07:36:11;;;;;;;2.03;1.23;;;23.60;53.40;;;;;;5050745;28;20029;-69
2023/07/21 07:38:38;;;;;;;1.55;1.35;;;23.70;53.50;;;;;;5051878;28;20033;-69
2023/07/21 07:41:05;;;;;;;2.22;1.30;;;23.80;53.30;;;;;;5032166;28;20119;-68
2023/07/21 07:43:32;;;;;;;0.95;0.95;;;23.90;53.00;;;;;;5054635;28;20483;-69
2023/07/21 07:45:58;;;;;;;1.58;1.40;;;24.00;52.80;;;;;;5051831;28;20063;-69
2023/07/21 07:48:24;;;;;;;1.98;1.50;;;24.00;52.60;;;;;;5053246;28;20437;-68
2023/07/21 07:50:52;;;;;;;1.35;1.10;;;24.10;52.50;;;;;;5051202;28;20096;-69
2023/07/21 07:53:17;;;;;;;1.83;1.40;;;24.00;52.40;;;;;;5049878;28;20021;-69
2023/07/21 07:55:44;;;;;;;1.20;1.10;;;24.10;52.10;;;;;;5052972;28;20028;-68
2023/07/21 07:58:10;;;;;;;2.08;1.10;;;24.10;52.00;;;;;;5051512;28;20122;-68
2023/07/21 08:00:38;;;;;;;1.20;1.10;;;24.20;52.00;;;;;;5049691;28;20486;-68
2023/07/21 08:03:05;;;;;;;1.88;1.40;;;24.20;52.10;;;;;;5050841;28;20112;-68
2023/07/21 08:05:31;;;;;;;2.30;1.30;;;24.10;52.50;;;;;;5050491;28;20036;-69
2023/07/21 08:08:00;;;;;;;1.45;1.20;;;23.90;52.70;;;;;;5051356;28;20447;-69
2023/07/21 08:10:29;;;;;;;1.95;1.25;;;24.00;52.20;;;;;;5048211;28;20021;-68
2023/07/21 08:12:56;;;;;;;1.63;1.17;;;24.00;52.20;;;;;;5050652;28;20402;-69
2023/07/21 08:15:22;;;;;;;2.25;1.40;;;24.00;51.80;;;;;;5048902;28;20052;-69
2023/07/21 08:17:48;;;;;;;2.10;1.27;;;23.90;51.80;;;;;;5051071;28;20037;-69
2023/07/21 08:20:13;;;;;;;1.67;1.33;;;23.80;52.30;;;;;;5049469;28;20040;-68
2023/07/21 08:22:39;;;;;;;2.40;1.10;;;23.80;52.40;;;;;;5049725;28;20419;-68
2023/07/21 08:25:05;;;;;;;1.80;1.20;;;23.80;52.60;;;;;;5050246;28;20021;-69
2023/07/21 08:27:35;;;;;;;2.28;1.20;;;23.80;52.50;;;;;;5051824;28;20013;-68
2023/07/21 08:30:01;;;;;;;1.33;1.00;;;23.90;52.70;;;;;;5050094;28;20036;-68
2023/07/21 08:32:27;;;;;;;1.23;1.10;;;24.00;52.90;;;;;;5050026;28;20025;-68
2023/07/21 08:34:54;;;;;;;1.35;0.95;;;24.00;53.00;;;;;;5048677;28;20541;-68
2023/07/21 08:37:19;;;;;;;1.90;1.42;;;24.20;53.00;;;;;;5051238;28;20025;-68
2023/07/21 08:39:45;;;;;;;1.63;0.98;;;24.30;52.30;;;;;;5030679;28;20557;-68
2023/07/21 08:42:12;;;;;;;1.30;0.90;;;24.30;52.10;;;;;;5046833;28;20485;-68
2023/07/21 08:44:39;;;;;;;1.17;0.93;;;24.30;52.10;;;;;;5049001;28;20024;-68
2023/07/21 08:47:05;;;;;;;1.50;0.90;;;24.20;51.50;;;;;;5052214;28;20551;-69
2023/07/21 08:49:32;;;;;;;1.40;1.00;;;24.30;51.70;;;;;;5053040;28;20487;-69
2023/07/21 08:51:57;;;;;;;2.35;1.00;;;24.30;51.40;;;;;;5051181;28;20013;-68
2023/07/21 08:54:23;;;;;;;0.90;0.90;;;24.50;51.30;;;;;;5051841;28;20033;-69
2023/07/21 08:56:49;;;;;;;1.13;0.98;;;24.50;51.20;;;;;;5051567;28;20036;-69
2023/07/21 08:59:14;;;;;;;1.40;1.00;;;24.50;50.60;;;;;;5047709;28;20041;-69
2023/07/21 09:01:40;;;;;;;1.27;1.10;;;24.60;50.40;;;;;;5049683;28;20031;-70
2023/07/21 09:04:18;;;;;;;1.23;1.10;;;24.50;49.50;;;;;;5052139;28;20483;-69
2023/07/21 09:06:56;;;;;;;1.70;1.30;;;24.40;48.80;;;;;;5044514;28;20502;-69
2023/07/21 09:09:24;;;;;;;2.25;1.30;;;24.30;49.00;;;;;;5048341;28;20024;-69
2023/07/21 09:11:58;;;;;;;1.83;1.35;;;24.40;49.30;;;;;;5034037;28;20044;-69
2023/07/21 09:14:35;;;;;;;1.45;1.27;;;24.40;49.30;;;;;;5048514;28;20052;-69
2023/07/21 09:17:05;;;;;;;1.25;1.05;;;24.40;49.70;;;;;;5046717;28;20209;-69
2023/07/21 09:19:34;;;;;;;2.38;1.00;;;24.60;49.80;;;;;;5030314;28;20033;-69
2023/07/21 09:22:00;;;;;;;1.38;1.17;;;24.60;49.30;;;;;;5049083;28;20028;-69
2023/07/21 09:24:25;;;;;;;0.90;0.90;;;24.60;48.80;;;;;;5051490;28;20476;-69
2023/07/21 09:27:09;;;;;;;1.60;1.10;;;24.70;49.20;;;;;;5048905;28;20047;-68
2023/07/21 09:29:35;;;;;;;1.50;1.15;;;24.80;47.80;;;;;;5048581;28;20025;-69
2023/07/21 09:32:01;;;;;;;2.75;1.92;;;24.70;47.90;;;;;;5048292;28;20029;-69
2023/07/21 09:34:26;;;;;;;2.30;1.60;;;24.50;47.50;;;;;;5048929;28;20482;-69
2023/07/21 09:36:52;;;;;;;1.95;1.40;;;24.30;47.90;;;;;;5048340;28;20033;-69
2023/07/21 09:39:17;;;;;;;1.40;1.20;;;24.10;47.80;;;;;;5046873;28;20476;-69
2023/07/21 09:41:44;;;;;;;2.20;1.40;;;24.30;48.20;;;;;;5047804;28;20143;-69
2023/07/21 09:44:11;;;;;;;2.10;1.60;;;24.50;48.00;;;;;;5047797;28;20056;-69
2023/07/21 09:46:38;;;;;;;2.17;1.48;;;24.50;47.80;;;;;;5049278;28;20066;-69
2023/07/21 09:49:03;;;;;;;1.63;1.10;;;24.70;47.70;;;;;;5048025;28;20048;-69
2023/07/21 09:51:31;;;;;;;2.75;1.98;;;25.00;47.60;;;;;;5049925;28;20031;-69
2023/07/21 09:54:03;;;;;;;2.75;1.70;;;25.10;47.00;;;;;;5047874;28;20418;-69
2023/07/21 09:56:31;;;;;;;1.95;1.25;;;25.00;47.30;;;;;;5048277;28;20021;-69
2023/07/21 09:59:01;;;;;;;2.45;1.30;;;25.20;47.50;;;;;;5047507;28;20068;-69
2023/07/21 10:01:29;;;;;;;1.58;1.33;;;25.40;47.10;;;;;;5048415;28;20025;-69
2023/07/21 10:03:57;;;;;;;1.90;1.27;;;25.40;46.50;;;;;;5048277;28;20104;-69
2023/07/21 10:06:23;;;;;;;1.30;1.15;;;25.40;46.40;;;;;;5030901;28;20070;-69
2023/07/21 10:08:50;;;;;;;3.17;1.27;;;25.30;46.70;;;;;;5048572;28;20123;-69
2023/07/21 10:11:16;;;;;;;1.15;1.05;;;25.30;46.60;;;;;;5051818;28;20040;-69
2023/07/21 10:13:47;;;;;;;1.10;1.00;;;25.50;46.80;;;;;;5052921;28;20009;-69
2023/07/21 10:16:14;;;;;;;2.00;1.10;;;25.70;46.70;;;;;;5051084;28;20025;-68
2023/07/21 10:19:05;;;;;;;1.20;1.10;;;25.80;46.30;;;;;;5034688;28;20020;-69
2023/07/21 10:21:32;;;;;;;1.67;1.23;;;25.90;46.00;;;;;;5054395;28;20013;-69
2023/07/21 10:24:01;;;;;;;1.42;1.10;;;25.70;46.10;;;;;;5031912;28;20690;-70
2023/07/21 10:26:30;;;;;;;1.27;1.17;;;25.60;46.40;;;;;;5050907;28;20472;-69
2023/07/21 10:29:14;;;;;;;1.73;1.00;;;25.50;46.20;;;;;;5052509;28;20357;-69
2023/07/21 10:31:53;;;;;;;1.63;1.00;;;25.30;46.20;;;;;;5051935;28;20024;-69
2023/07/21 10:34:24;;;;;;;0.80;0.80;;;25.20;46.40;;;;;;5049009;28;20388;-69
2023/07/21 10:36:52;;;;;;;5.73;1.27;;;25.00;46.70;;;;;;5051394;28;20017;-69
2023/07/21 10:39:21;;;;;;;2.10;1.40;;;25.10;46.90;;;;;;5050673;28;20025;-69
2023/07/21 10:41:48;;;;;;;1.10;1.00;;;25.10;46.70;;;;;;5049185;28;20027;-70
2023/07/21 10:44:14;;;;;;;1.67;1.30;;;25.10;47.20;;;;;;5050762;28;20021;-69
2023/07/21 10:46:42;;;;;;;2.35;1.58;;;25.20;47.30;;;;;;5050901;28;20025;-69
2023/07/21 10:49:09;;;;;;;3.03;1.42;;;25.20;46.80;;;;;;5054470;28;20021;-69
2023/07/21 10:51:36;;;;;;;1.48;1.38;;;25.20;46.50;;;;;;5050911;28;20025;-69
2023/07/21 10:54:03;;;;;;;1.40;1.20;;;25.20;46.50;;;;;;5052843;28;20017;-69
2023/07/21 10:56:29;;;;;;;2.13;1.40;;;25.20;46.80;;;;;;5050694;28;20383;-69
2023/07/21 10:58:55;;;;;;;1.05;0.95;;;25.30;47.10;;;;;;5050664;28;20025;-69
2023/07/21 11:01:21;;;;;;;2.22;1.30;;;25.50;47.10;;;;;;5050849;28;20032;-69
2023/07/21 11:03:48;;;;;;;1.65;1.40;;;25.60;47.60;;;;;;5048479;28;20013;-69
2023/07/21 11:06:14;;;;;;;2.83;1.52;;;25.70;46.80;;;;;;5050756;28;20029;-67
2023/07/21 11:08:40;;;;;;;2.72;1.90;;;25.60;46.80;;;;;;5050246;28;20673;-69
2023/07/21 11:11:08;;;;;;;2.10;1.40;;;25.60;45.80;;;;;;5053633;28;20104;-69
2023/07/21 11:13:33;;;;;;;1.80;1.17;;;25.50;45.80;;;;;;5052240;28;20029;-69
2023/07/21 11:16:00;;;;;;;2.50;1.15;;;25.60;45.50;;;;;;5052726;28;20091;-68
2023/07/21 11:18:28;;;;;;;1.50;1.10;;;25.70;45.50;;;;;;5049575;28;20029;-68
2023/07/21 11:20:55;;;;;;;1.30;1.20;;;25.80;44.80;;;;;;5051769;28;20028;-68
2023/07/21 11:23:21;;;;;;;1.15;0.90;;;25.80;44.30;;;;;;5050497;28;20392;-69
2023/07/21 11:26:06;;;;;;;1.27;0.80;;;25.80;43.90;;;;;;5053633;28;20028;-68
2023/07/21 11:28:33;;;;;;;1.40;0.80;;;25.90;43.50;;;;;;5050477;28;20033;-69
2023/07/21 11:31:00;;;;;;;1.45;0.80;;;26.00;42.30;;;;;;5054500;28;20029;-68
2023/07/21 11:33:48;;;;;;;2.05;1.13;;;26.10;42.20;;;;;;5049926;28;20017;-68
2023/07/21 11:36:22;;;;;;;1.77;1.20;;;26.20;41.60;;;;;;5049995;28;20029;-68
2023/07/21 11:39:04;;;;;;;1.05;0.90;;;26.10;42.00;;;;;;5050271;28;20032;-69
2023/07/21 11:41:44;;;;;;;1.10;1.00;;;26.00;42.40;;;;;;5050040;28;20092;-68
2023/07/21 11:44:21;;;;;;;0.93;0.80;;;26.00;43.00;;;;;;5050103;28;20057;-68
2023/07/21 11:47:12;;;;;;;1.30;1.00;;;26.20;43.20;;;;;;5046761;28;20044;-67
2023/07/21 11:49:45;;;;;;;0.88;0.80;;;26.10;42.80;;;;;;5053088;28;20058;-68
2023/07/21 11:52:22;;;;;;;1.55;0.90;;;26.10;43.30;;;;;;5053658;28;20021;-68
2023/07/21 11:54:48;;;;;;;0.98;0.80;;;26.00;43.50;;;;;;5049751;28;20028;-68
2023/07/21 11:57:14;;;;;;;2.17;0.90;;;26.20;43.90;;;;;;5053641;28;20029;-68
2023/07/21 11:59:40;;;;;;;1.30;1.00;;;26.30;43.80;;;;;;5052112;28;20063;-68
2023/07/21 12:02:07;;;;;;;1.00;0.90;;;26.40;43.40;;;;;;5050527;28;20389;-67
2023/07/21 12:04:34;;;;;;;1.00;0.90;;;26.30;43.00;;;;;;5048611;28;20051;-68
2023/07/21 12:07:01;;;;;;;1.45;1.10;;;26.20;43.10;;;;;;5051546;28;20108;-68
2023/07/21 12:09:27;;;;;;;1.63;1.08;;;26.20;43.30;;;;;;5049596;28;20100;-68
2023/07/21 12:11:54;;;;;;;1.58;1.30;;;26.00;43.50;;;;;;5049520;28;20024;-68
2023/07/21 12:14:19;;;;;;;2.55;1.30;;;25.80;43.60;;;;;;5051672;28;20028;-68
2023/07/21 12:16:45;;;;;;;1.40;1.00;;;25.70;43.80;;;;;;5049587;28;20019;-68
2023/07/21 12:19:11;;;;;;;1.17;0.90;;;25.50;44.00;;;;;;5052105;28;20071;-68
2023/07/21 12:21:37;;;;;;;2.08;1.00;;;25.50;44.50;;;;;;5049187;28;20028;-68
2023/07/21 12:24:02;;;;;;;1.85;1.23;;;25.60;44.80;;;;;;5049686;28;20029;-68
2023/07/21 12:26:28;;;;;;;1.30;1.00;;;25.50;44.80;;;;;;5052383;28;20029;-68
2023/07/21 12:28:55;;;;;;;1.20;1.10;;;25.50;45.00;;;;;;5050284;28;20025;-68
2023/07/21 12:31:20;;;;;;;2.83;1.40;;;25.50;44.80;;;;;;5049298;28;20029;-68
2023/07/21 12:33:48;;;;;;;1.60;1.05;;;25.30;44.50;;;;;;5052325;28;20020;-68
2023/07/21 12:36:15;;;;;;;1.60;1.30;;;25.30;44.90;;;;;;5048568;28;20408;-69
2023/07/21 12:38:41;;;;;;;1.10;1.00;;;25.30;45.00;;;;;;5048831;28;20016;-68
2023/07/21 12:41:07;;;;;;;1.10;1.00;;;25.40;45.20;;;;;;5047445;28;20745;-68
2023/07/21 12:43:33;;;;;;;2.53;1.10;;;25.30;45.20;;;;;;5050413;28;20100;-68
2023/07/21 12:46:00;;;;;;;3.13;1.25;;;25.30;45.40;;;;;;5048835;28;20124;-68
2023/07/21 12:48:26;;;;;;;1.95;1.25;;;25.10;45.40;;;;;;5047177;28;20048;-69